createdAt,value
2019-05-11T00:01:40.455Z,9.10
2019-05-11T00:04:00.321Z,9.10
2019-05-11T00:06:22.009Z,9.00
2019-05-11T00:08:42.666Z,9.00
2019-05-11T00:11:03.614Z,8.90
2019-05-11T00:13:24.366Z,8.70
2019-05-11T00:15:45.030Z,8.70
2019-05-11T00:18:05.815Z,8.60
2019-05-11T00:20:27.351Z,8.60
2019-05-11T00:22:48.013Z,8.60
2019-05-11T00:25:08.986Z,8.50
2019-05-11T00:27:30.779Z,8.30
2019-05-11T00:29:51.265Z,8.40
2019-05-11T00:32:11.836Z,8.40
2019-05-11T00:34:32.444Z,8.40
2019-05-11T00:36:56.049Z,8.50
2019-05-11T00:39:16.558Z,8.50
2019-05-11T00:41:38.584Z,8.80
2019-05-11T00:43:59.149Z,8.90
2019-05-11T00:46:19.727Z,9.00
2019-05-11T00:48:40.543Z,9.00
2019-05-11T00:51:01.063Z,9.00
2019-05-11T00:53:21.530Z,8.90
2019-05-11T00:55:42.158Z,8.80
2019-05-11T00:58:02.613Z,8.60
2019-05-11T01:00:24.955Z,8.60
2019-05-11T01:02:47.149Z,8.60
2019-05-11T01:05:07.955Z,8.70
2019-05-11T01:07:28.527Z,8.70
2019-05-11T01:09:49.009Z,8.80
2019-05-11T01:12:09.550Z,8.80
2019-05-11T01:14:30.090Z,8.70
2019-05-11T01:16:50.661Z,8.80
2019-05-11T01:19:11.206Z,8.90
2019-05-11T01:21:31.704Z,8.90
2019-05-11T01:23:52.241Z,8.90
2019-05-11T01:26:12.685Z,8.90
2019-05-11T01:28:33.238Z,8.90
2019-05-11T01:30:53.735Z,8.90
2019-05-11T01:33:14.169Z,8.90
2019-05-11T01:35:34.637Z,8.80
2019-05-11T01:37:55.140Z,8.90
2019-05-11T01:40:17.187Z,8.90
2019-05-11T01:42:37.645Z,8.90
2019-05-11T01:44:58.219Z,8.80
2019-05-11T01:47:18.737Z,8.90
2019-05-11T01:49:40.918Z,8.90
2019-05-11T01:52:04.246Z,8.90
2019-05-11T01:54:23.364Z,9.00
2019-05-11T01:56:44.657Z,9.10
2019-05-11T01:59:05.117Z,9.10
2019-05-11T02:01:25.675Z,9.00
2019-05-11T02:03:46.271Z,8.90
2019-05-11T02:06:06.939Z,8.90
2019-05-11T02:08:27.370Z,8.90
2019-05-11T02:10:48.011Z,8.90
2019-05-11T02:13:08.562Z,8.90
2019-05-11T02:15:31.933Z,8.90
2019-05-11T02:17:52.516Z,8.90
2019-05-11T02:20:16.145Z,8.90
2019-05-11T02:22:36.767Z,9.00
2019-05-11T02:24:57.264Z,8.90
2019-05-11T02:27:17.777Z,8.90
2019-05-11T02:29:41.635Z,8.90
2019-05-11T02:32:01.707Z,8.90
2019-05-11T02:34:22.151Z,9.00
2019-05-11T02:36:43.012Z,8.90
2019-05-11T02:39:05.476Z,8.90
2019-05-11T02:41:35.576Z,8.80
2019-05-11T02:43:47.571Z,8.70
2019-05-11T02:46:08.355Z,8.60
2019-05-11T02:48:29.138Z,8.60
2019-05-11T02:50:50.356Z,8.60
2019-05-11T02:53:10.907Z,8.60
2019-05-11T02:55:31.508Z,8.60
2019-05-11T02:57:52.119Z,8.60
2019-05-11T03:00:13.366Z,8.60
2019-05-11T03:02:33.926Z,8.50
2019-05-11T03:04:54.450Z,8.50
2019-05-11T03:07:15.025Z,8.40
2019-05-11T03:09:35.532Z,8.30
2019-05-11T03:11:56.577Z,8.20
2019-05-11T03:14:17.247Z,8.10
2019-05-11T03:16:37.736Z,8.10
2019-05-11T03:18:58.294Z,8.10
2019-05-11T03:21:18.898Z,8.10
2019-05-11T03:23:39.459Z,8.10
2019-05-11T03:26:00.010Z,8.20
2019-05-11T03:28:20.520Z,8.20
2019-05-11T03:30:41.130Z,8.20
2019-05-11T03:33:01.651Z,8.10
2019-05-11T03:35:22.200Z,8.00
2019-05-11T03:37:44.396Z,8.00
2019-05-11T03:40:08.556Z,8.00
2019-05-11T03:42:29.162Z,8.00
2019-05-11T03:44:49.691Z,8.00
2019-05-11T03:47:10.298Z,8.10
2019-05-11T03:49:30.799Z,7.90
2019-05-11T03:51:51.351Z,7.90
2019-05-11T03:54:11.878Z,7.80
2019-05-11T03:56:32.474Z,7.80
2019-05-11T03:58:52.940Z,7.80
2019-05-11T04:01:13.521Z,7.90
2019-05-11T04:03:34.135Z,7.90
2019-05-11T04:05:54.627Z,7.90
2019-05-11T04:08:15.147Z,7.90
2019-05-11T04:10:35.604Z,8.00
2019-05-11T04:12:56.257Z,8.00
2019-05-11T04:15:17.135Z,8.00
2019-05-11T04:17:37.746Z,8.00
2019-05-11T04:19:58.398Z,8.00
2019-05-11T04:22:19.220Z,8.10
2019-05-11T04:24:40.095Z,8.20
2019-05-11T04:27:00.692Z,8.20
2019-05-11T04:29:21.599Z,8.20
2019-05-11T04:31:42.115Z,8.30
2019-05-11T04:34:02.581Z,8.40
2019-05-11T04:36:23.177Z,8.60
2019-05-11T04:38:43.727Z,8.70
2019-05-11T04:41:04.337Z,8.80
2019-05-11T04:43:24.887Z,8.80
2019-05-11T04:45:45.629Z,8.80
2019-05-11T04:48:06.255Z,8.90
2019-05-11T04:50:26.806Z,8.90
2019-05-11T04:52:47.404Z,9.00
2019-05-11T04:55:08.197Z,9.00
2019-05-11T04:57:28.721Z,9.20
2019-05-11T04:59:49.223Z,9.50
2019-05-11T05:02:09.925Z,9.50
2019-05-11T05:04:30.620Z,9.50
2019-05-11T05:06:59.538Z,9.40
2019-05-11T05:09:13.278Z,9.40
2019-05-11T05:11:36.524Z,9.50
2019-05-11T05:13:56.110Z,9.60
2019-05-11T05:16:19.076Z,9.70
2019-05-11T05:18:39.366Z,9.80
2019-05-11T05:21:00.049Z,9.80
2019-05-11T05:23:20.651Z,9.90
2019-05-11T05:25:41.217Z,10.10
2019-05-11T05:28:01.819Z,10.20
2019-05-11T05:30:22.616Z,10.30
2019-05-11T05:32:42.665Z,10.40
2019-05-11T05:35:03.342Z,10.50
2019-05-11T05:37:23.909Z,10.60
2019-05-11T05:39:44.451Z,10.70
2019-05-11T05:42:04.995Z,10.90
2019-05-11T05:44:27.848Z,11.00
2019-05-11T05:46:48.155Z,11.00
2019-05-11T05:49:08.639Z,11.20
2019-05-11T05:51:28.559Z,11.30
2019-05-11T05:53:49.072Z,11.40
2019-05-11T05:56:09.385Z,11.50
2019-05-11T05:58:29.999Z,11.60
2019-05-11T06:00:50.384Z,11.60
2019-05-11T06:03:10.839Z,11.70
2019-05-11T06:05:36.309Z,11.80
2019-05-11T06:07:56.269Z,11.90
2019-05-11T06:10:16.387Z,11.90
2019-05-11T06:12:36.898Z,12.00
2019-05-11T06:14:56.789Z,12.20
2019-05-11T06:17:17.640Z,12.30
2019-05-11T06:19:38.111Z,12.40
2019-05-11T06:21:58.485Z,12.40
2019-05-11T06:24:18.783Z,12.30
2019-05-11T06:26:39.369Z,12.40
2019-05-11T06:29:00.449Z,12.40
2019-05-11T06:31:22.132Z,12.40
2019-05-11T06:33:42.341Z,12.50
2019-05-11T06:36:02.626Z,12.60
2019-05-11T06:38:23.004Z,12.70
2019-05-11T06:40:43.552Z,12.80
2019-05-11T06:43:03.901Z,13.00
2019-05-11T06:45:24.179Z,12.80
2019-05-11T06:47:44.435Z,13.00
2019-05-11T06:50:05.373Z,13.40
2019-05-11T06:52:25.720Z,13.50
2019-05-11T06:54:45.898Z,13.70
2019-05-11T06:57:06.221Z,14.10
2019-05-11T06:59:26.426Z,14.50
2019-05-11T07:01:46.774Z,14.80
2019-05-11T07:04:07.033Z,14.90
2019-05-11T07:06:30.468Z,15.20
2019-05-11T07:08:49.165Z,15.40
2019-05-11T07:11:11.304Z,15.70
2019-05-11T07:13:31.209Z,16.10
2019-05-11T07:15:51.189Z,16.50
2019-05-11T07:18:11.268Z,16.60
2019-05-11T07:20:48.275Z,16.60
2019-05-11T07:22:55.808Z,16.30
2019-05-11T07:25:16.080Z,16.60
2019-05-11T07:27:36.343Z,16.80
2019-05-11T07:29:56.509Z,17.30
2019-05-11T07:32:25.097Z,17.40
2019-05-11T07:34:38.601Z,17.70
2019-05-11T07:36:58.831Z,17.60
2019-05-11T07:39:19.087Z,17.00
2019-05-11T07:41:40.173Z,17.30
2019-05-11T07:44:00.422Z,17.50
2019-05-11T07:46:21.178Z,17.90
2019-05-11T07:48:41.576Z,18.10
2019-05-11T07:51:01.748Z,18.60
2019-05-11T07:53:21.940Z,18.10
2019-05-11T07:55:42.223Z,18.00
2019-05-11T07:58:02.388Z,18.50
2019-05-11T08:00:22.836Z,19.60
2019-05-11T08:02:42.775Z,19.70
2019-05-11T08:05:02.789Z,20.30
2019-05-11T08:07:23.981Z,20.30
2019-05-11T08:09:44.200Z,20.50
2019-05-11T08:12:04.528Z,19.80
2019-05-11T08:14:24.778Z,19.80
2019-05-11T08:16:45.062Z,20.20
2019-05-11T08:19:08.113Z,20.10
2019-05-11T08:21:28.326Z,19.70
2019-05-11T08:23:51.897Z,20.00
2019-05-11T08:26:12.108Z,19.60
2019-05-11T08:28:32.455Z,19.70
2019-05-11T08:30:52.852Z,19.80
2019-05-11T08:33:13.115Z,19.70
2019-05-11T08:35:33.368Z,20.40
2019-05-11T08:37:53.664Z,20.70
2019-05-11T08:40:18.289Z,20.30
2019-05-11T08:42:38.659Z,19.80
2019-05-11T08:45:14.763Z,19.90
2019-05-11T08:47:20.876Z,20.20
2019-05-11T08:49:41.059Z,20.30
2019-05-11T08:52:04.758Z,20.70
2019-05-11T08:54:28.542Z,20.90
2019-05-11T08:56:48.694Z,20.80
2019-05-11T08:59:08.650Z,21.20
2019-05-11T09:01:31.317Z,21.80
2019-05-11T09:03:50.604Z,21.80
2019-05-11T09:06:10.382Z,21.30
2019-05-11T09:08:30.450Z,21.00
2019-05-11T09:10:50.666Z,21.10
2019-05-11T09:13:10.965Z,20.40
2019-05-11T09:15:36.848Z,21.00
2019-05-11T09:17:53.065Z,21.10
2019-05-11T09:20:13.468Z,21.70
2019-05-11T09:22:34.718Z,21.50
2019-05-11T09:24:54.978Z,22.00
2019-05-11T09:27:15.172Z,22.30
2019-05-11T09:29:35.465Z,22.00
2019-05-11T09:31:57.621Z,22.40
2019-05-11T09:34:18.237Z,22.30
2019-05-11T09:36:39.072Z,21.70
2019-05-11T09:38:59.475Z,22.30
2019-05-11T09:41:19.803Z,22.30
2019-05-11T09:43:42.969Z,22.10
2019-05-11T09:46:03.271Z,22.10
2019-05-11T09:48:23.554Z,22.10
2019-05-11T09:50:43.822Z,21.90
2019-05-11T09:53:04.234Z,21.70
2019-05-11T09:55:28.105Z,21.40
2019-05-11T09:57:48.680Z,21.20
2019-05-11T10:00:11.215Z,21.80
2019-05-11T10:02:32.912Z,21.30
2019-05-11T10:04:53.014Z,22.20
2019-05-11T10:07:14.234Z,22.80
2019-05-11T10:09:34.216Z,22.30
2019-05-11T10:11:54.845Z,22.60
2019-05-11T10:14:14.833Z,22.80
2019-05-11T10:16:38.629Z,22.60
2019-05-11T10:18:59.295Z,22.30
2019-05-11T10:21:20.610Z,22.50
2019-05-11T10:23:42.552Z,22.80
2019-05-11T10:26:04.401Z,22.50
2019-05-11T10:28:24.475Z,22.10
2019-05-11T10:30:48.680Z,21.50
2019-05-11T10:33:09.107Z,22.20
2019-05-11T10:35:30.296Z,22.60
2019-05-11T10:37:50.514Z,23.10
2019-05-11T10:40:10.842Z,22.80
2019-05-11T10:42:32.042Z,22.10
2019-05-11T10:44:52.215Z,22.00
2019-05-11T10:47:12.458Z,23.10
2019-05-11T10:49:33.759Z,22.80
2019-05-11T10:51:54.038Z,22.70
2019-05-11T10:54:14.214Z,23.40
2019-05-11T10:56:34.246Z,23.90
2019-05-11T10:58:54.147Z,24.00
2019-05-11T11:01:14.040Z,23.50
2019-05-11T11:03:33.954Z,22.40
2019-05-11T11:05:54.625Z,22.20
2019-05-11T11:08:14.604Z,22.30
2019-05-11T11:10:34.590Z,22.60
2019-05-11T11:12:57.833Z,22.20
2019-05-11T11:15:18.406Z,22.10
2019-05-11T11:17:39.396Z,22.20
2019-05-11T11:19:59.477Z,21.70
2019-05-11T11:22:35.894Z,21.40
2019-05-11T11:24:41.267Z,21.90
2019-05-11T11:27:01.654Z,22.10
2019-05-11T11:29:21.940Z,22.50
2019-05-11T11:31:42.112Z,22.50
2019-05-11T11:34:03.907Z,23.00
2019-05-11T11:36:24.153Z,22.80
2019-05-11T11:38:44.396Z,22.80
2019-05-11T11:41:07.760Z,22.80
2019-05-11T11:43:28.754Z,22.80
2019-05-11T11:45:49.009Z,22.90
2019-05-11T11:48:09.164Z,22.90
2019-05-11T11:50:29.413Z,23.10
2019-05-11T11:52:49.632Z,22.70
2019-05-11T11:55:10.056Z,23.30
2019-05-11T11:57:31.299Z,23.40
2019-05-11T11:59:51.555Z,23.10
2019-05-11T12:02:11.932Z,23.30
2019-05-11T12:04:32.150Z,23.20
2019-05-11T12:06:52.299Z,23.00
2019-05-11T12:09:12.543Z,23.50
2019-05-11T12:11:32.827Z,24.50
2019-05-11T12:13:53.158Z,23.70
2019-05-11T12:16:13.488Z,23.80
2019-05-11T12:18:33.727Z,24.30
2019-05-11T12:20:53.974Z,24.20
2019-05-11T12:23:14.117Z,24.20
2019-05-11T12:25:37.670Z,23.90
2019-05-11T12:27:57.785Z,24.00
2019-05-11T12:30:18.370Z,23.40
2019-05-11T12:32:40.297Z,23.70
2019-05-11T12:35:02.139Z,23.30
2019-05-11T12:37:24.443Z,23.50
2019-05-11T12:39:44.725Z,24.50
2019-05-11T12:42:04.819Z,24.60
2019-05-11T12:44:24.852Z,25.00
2019-05-11T12:46:45.192Z,24.90
2019-05-11T12:49:07.320Z,25.00
2019-05-11T12:51:28.162Z,23.60
2019-05-11T12:53:48.122Z,23.10
2019-05-11T12:56:08.443Z,23.60
2019-05-11T12:58:28.707Z,23.40
2019-05-11T13:00:49.034Z,22.80
2019-05-11T13:03:10.885Z,23.00
2019-05-11T13:05:31.120Z,23.30
2019-05-11T13:07:51.465Z,23.40
2019-05-11T13:10:14.485Z,23.40
2019-05-11T13:12:34.644Z,23.00
2019-05-11T13:14:54.894Z,22.90
2019-05-11T13:17:15.167Z,23.10
2019-05-11T13:19:35.380Z,23.50
2019-05-11T13:21:55.548Z,23.80
2019-05-11T13:24:15.798Z,23.90
2019-05-11T13:26:39.053Z,23.80
2019-05-11T13:28:59.071Z,24.20
2019-05-11T13:31:19.139Z,24.30
2019-05-11T13:33:40.195Z,24.00
2019-05-11T13:36:01.739Z,23.80
2019-05-11T13:38:21.785Z,23.90
2019-05-11T13:40:41.849Z,23.80
2019-05-11T13:43:03.038Z,23.60
2019-05-11T13:45:22.992Z,24.40
2019-05-11T13:47:54.409Z,24.50
2019-05-11T13:50:07.758Z,24.20
2019-05-11T13:52:28.670Z,23.60
2019-05-11T13:54:51.234Z,23.40
2019-05-11T13:57:14.300Z,23.30
2019-05-11T13:59:34.271Z,23.50
2019-05-11T14:01:54.755Z,23.90
2019-05-11T14:04:15.000Z,24.20
2019-05-11T14:06:35.264Z,25.00
2019-05-11T14:08:55.494Z,24.80
2019-05-11T14:11:18.051Z,24.00
2019-05-11T14:13:38.681Z,24.30
2019-05-11T14:15:59.989Z,24.50
2019-05-11T14:18:19.941Z,25.20
2019-05-11T14:20:40.145Z,25.80
2019-05-11T14:23:00.355Z,26.50
2019-05-11T14:25:20.424Z,27.10
2019-05-11T14:27:40.353Z,27.10
2019-05-11T14:30:03.957Z,26.30
2019-05-11T14:32:22.596Z,26.20
2019-05-11T14:34:44.671Z,25.10
2019-05-11T14:37:08.790Z,24.40
2019-05-11T14:39:28.841Z,23.90
2019-05-11T14:41:50.356Z,23.60
2019-05-11T14:44:10.301Z,23.40
2019-05-11T14:46:30.572Z,24.10
2019-05-11T14:48:50.816Z,25.10
2019-05-11T14:51:11.144Z,24.70
2019-05-11T14:53:31.376Z,24.30
2019-05-11T14:55:51.591Z,24.60
2019-05-11T14:58:11.775Z,25.80
2019-05-11T15:00:32.073Z,24.60
2019-05-11T15:02:53.785Z,25.10
2019-05-11T15:05:18.254Z,25.50
2019-05-11T15:07:38.609Z,25.70
2019-05-11T15:09:58.969Z,26.20
2019-05-11T15:12:20.727Z,26.10
2019-05-11T15:14:41.103Z,26.50
2019-05-11T15:17:01.249Z,26.70
2019-05-11T15:19:21.435Z,26.50
2019-05-11T15:21:41.745Z,26.70
2019-05-11T15:24:01.945Z,26.40
2019-05-11T15:26:22.123Z,25.70
2019-05-11T15:28:42.660Z,25.60
2019-05-11T15:31:02.835Z,24.90
2019-05-11T15:33:23.095Z,24.00
2019-05-11T15:35:43.313Z,24.00
2019-05-11T15:38:03.548Z,23.70
2019-05-11T15:40:23.828Z,23.70
2019-05-11T15:42:44.169Z,23.40
2019-05-11T15:45:10.598Z,22.70
2019-05-11T15:47:31.128Z,22.90
2019-05-11T15:49:52.655Z,22.70
2019-05-11T15:52:15.630Z,22.40
2019-05-11T15:54:38.420Z,22.10
2019-05-11T15:56:59.946Z,22.20
2019-05-11T15:59:20.276Z,22.20
2019-05-11T16:01:41.125Z,22.20
2019-05-11T16:04:01.467Z,22.10
2019-05-11T16:06:21.777Z,22.00
2019-05-11T16:08:45.271Z,22.10
2019-05-11T16:11:03.919Z,21.80
2019-05-11T16:13:28.479Z,21.70
2019-05-11T16:15:50.460Z,21.70
2019-05-11T16:18:10.638Z,21.60
2019-05-11T16:20:31.038Z,21.60
2019-05-11T16:22:52.792Z,21.60
2019-05-11T16:25:14.496Z,21.40
2019-05-11T16:27:34.739Z,21.40
2019-05-11T16:29:54.964Z,21.40
2019-05-11T16:32:15.280Z,21.40
2019-05-11T16:34:35.437Z,21.40
2019-05-11T16:36:55.825Z,21.30
2019-05-11T16:39:18.503Z,21.20
2019-05-11T16:41:38.279Z,21.00
2019-05-11T16:43:59.541Z,20.90
2019-05-11T16:46:22.539Z,20.80
2019-05-11T16:48:42.595Z,20.80
2019-05-11T16:51:02.852Z,20.80
2019-05-11T16:53:23.150Z,20.60
2019-05-11T16:55:43.378Z,20.60
2019-05-11T16:58:03.665Z,20.50
2019-05-11T17:00:24.015Z,20.50
2019-05-11T17:02:44.239Z,20.40
2019-05-11T17:05:08.926Z,20.40
2019-05-11T17:07:30.082Z,20.30
2019-05-11T17:09:52.759Z,20.20
2019-05-11T17:12:13.085Z,20.20
2019-05-11T17:14:37.393Z,20.20
2019-05-11T17:16:58.588Z,20.00
2019-05-11T17:19:18.833Z,20.00
2019-05-11T17:21:38.867Z,20.00
2019-05-11T17:23:59.147Z,20.00
2019-05-11T17:26:19.274Z,20.00
2019-05-11T17:28:40.126Z,19.90
2019-05-11T17:31:02.907Z,19.90
2019-05-11T17:33:22.441Z,19.90
2019-05-11T17:35:42.960Z,19.80
2019-05-11T17:38:03.361Z,19.80
2019-05-11T17:40:23.828Z,19.80
2019-05-11T17:42:44.177Z,19.90
2019-05-11T17:45:08.069Z,19.80
2019-05-11T17:47:28.758Z,19.80
2019-05-11T17:49:59.354Z,19.80
2019-05-11T17:52:10.955Z,19.80
2019-05-11T17:54:33.224Z,19.80
2019-05-11T17:56:53.223Z,19.80
2019-05-11T17:59:13.500Z,19.70
2019-05-11T18:01:33.744Z,19.70
2019-05-11T18:03:54.090Z,19.60
2019-05-11T18:06:14.400Z,19.60
2019-05-11T18:08:34.741Z,19.50
2019-05-11T18:10:55.137Z,19.40
2019-05-11T18:13:15.579Z,19.40
2019-05-11T18:15:37.864Z,19.30
2019-05-11T18:17:58.806Z,19.30
2019-05-11T18:20:21.893Z,19.20
2019-05-11T18:22:41.416Z,19.20
2019-05-11T18:25:01.836Z,19.20
2019-05-11T18:27:22.512Z,19.20
2019-05-11T18:29:42.855Z,19.10
2019-05-11T18:32:03.130Z,19.10
2019-05-11T18:34:23.463Z,19.00
2019-05-11T18:36:43.814Z,19.00
2019-05-11T18:39:06.154Z,19.00
2019-05-11T18:41:28.296Z,19.00
2019-05-11T18:43:48.816Z,19.00
2019-05-11T18:46:08.705Z,18.90
2019-05-11T18:48:29.355Z,18.90
2019-05-11T18:50:49.744Z,18.80
2019-05-11T18:53:09.963Z,18.70
2019-05-11T18:55:30.213Z,18.30
2019-05-11T18:57:50.506Z,18.00
2019-05-11T19:00:11.308Z,17.40
2019-05-11T19:02:31.595Z,17.10
2019-05-11T19:04:51.903Z,16.60
2019-05-11T19:07:16.929Z,15.90
2019-05-11T19:09:34.125Z,15.50
2019-05-11T19:11:54.166Z,15.10
2019-05-11T19:14:15.669Z,14.80
2019-05-11T19:16:35.865Z,14.50
2019-05-11T19:18:58.478Z,14.30
2019-05-11T19:21:18.234Z,14.10
2019-05-11T19:23:38.524Z,14.00
2019-05-11T19:25:58.742Z,13.80
2019-05-11T19:28:18.967Z,13.60
2019-05-11T19:30:39.490Z,13.60
2019-05-11T19:32:59.560Z,13.50
2019-05-11T19:35:21.189Z,13.30
2019-05-11T19:37:42.323Z,13.20
2019-05-11T19:40:02.210Z,13.10
2019-05-11T19:42:22.723Z,13.00
2019-05-11T19:44:43.263Z,12.90
2019-05-11T19:47:03.775Z,12.90
2019-05-11T19:49:24.329Z,12.80
2019-05-11T19:51:44.835Z,12.80
2019-05-11T19:54:04.806Z,12.70
2019-05-11T19:56:28.733Z,12.60
2019-05-11T19:58:48.547Z,12.50
2019-05-11T20:01:10.105Z,12.40
2019-05-11T20:03:30.058Z,12.40
2019-05-11T20:05:53.545Z,12.30
2019-05-11T20:08:13.540Z,12.30
2019-05-11T20:10:33.578Z,12.20
2019-05-11T20:12:53.450Z,12.10
2019-05-11T20:15:13.807Z,12.20
2019-05-11T20:17:34.292Z,12.20
2019-05-11T20:19:58.094Z,12.10
2019-05-11T20:22:19.952Z,12.00
2019-05-11T20:24:40.465Z,12.00
2019-05-11T20:27:00.503Z,12.00
2019-05-11T20:29:22.754Z,12.00
2019-05-11T20:31:43.332Z,11.90
2019-05-11T20:34:03.976Z,11.80
2019-05-11T20:36:24.594Z,11.80
2019-05-11T20:38:44.855Z,11.80
2019-05-11T20:41:05.352Z,11.80
2019-05-11T20:43:27.899Z,11.80
2019-05-11T20:45:48.645Z,11.80
2019-05-11T20:48:09.514Z,11.80
2019-05-11T20:50:31.083Z,11.80
2019-05-11T20:52:51.747Z,11.70
2019-05-11T20:55:15.047Z,11.70
2019-05-11T20:57:36.008Z,11.50
2019-05-11T20:59:57.601Z,11.40
2019-05-11T21:02:18.420Z,11.40
2019-05-11T21:04:38.912Z,11.30
2019-05-11T21:06:59.422Z,11.30
2019-05-11T21:09:19.931Z,11.30
2019-05-11T21:11:39.833Z,11.30
2019-05-11T21:14:00.413Z,11.40
2019-05-11T21:16:20.895Z,11.40
2019-05-11T21:18:41.513Z,11.40
2019-05-11T21:21:02.023Z,11.50
2019-05-11T21:23:22.521Z,11.50
2019-05-11T21:25:44.222Z,11.50
2019-05-11T21:28:08.281Z,11.50
2019-05-11T21:30:28.214Z,11.60
2019-05-11T21:32:48.931Z,11.50
2019-05-11T21:35:09.526Z,11.50
2019-05-11T21:37:30.559Z,11.50
2019-05-11T21:39:51.782Z,11.50
2019-05-11T21:42:12.311Z,11.50
2019-05-11T21:44:32.857Z,11.50
2019-05-11T21:46:53.424Z,11.50
2019-05-11T21:49:13.933Z,11.50
2019-05-11T21:51:34.748Z,11.50
2019-05-11T21:53:55.145Z,11.50
2019-05-11T21:56:15.677Z,11.60
2019-05-11T21:58:37.793Z,11.60
2019-05-11T22:00:58.570Z,11.70
2019-05-11T22:03:20.377Z,11.80
2019-05-11T22:05:42.246Z,11.80
2019-05-11T22:08:02.526Z,11.80
2019-05-11T22:10:23.179Z,11.70
2019-05-11T22:12:43.810Z,11.80
2019-05-11T22:15:09.207Z,11.80
2019-05-11T22:17:30.820Z,11.90
2019-05-11T22:19:51.293Z,11.90
2019-05-11T22:22:21.527Z,12.00
2019-05-11T22:24:33.875Z,12.00
2019-05-11T22:26:54.092Z,12.10
2019-05-11T22:29:14.312Z,12.10
2019-05-11T22:31:34.480Z,11.90
2019-05-11T22:33:54.727Z,11.70
2019-05-11T22:36:16.476Z,11.50
2019-05-11T22:38:38.693Z,11.30
2019-05-11T22:40:59.229Z,11.20
2019-05-11T22:43:19.854Z,11.10
2019-05-11T22:45:40.291Z,11.10
2019-05-11T22:48:00.732Z,11.10
2019-05-11T22:50:21.197Z,11.10
2019-05-11T22:52:41.718Z,11.10
2019-05-11T22:55:02.258Z,11.00
2019-05-11T22:57:22.767Z,11.10
2019-05-11T22:59:43.297Z,11.00
2019-05-11T23:02:03.835Z,10.90
2019-05-11T23:04:24.352Z,10.70
2019-05-11T23:06:44.910Z,10.70
2019-05-11T23:09:07.961Z,10.60
2019-05-11T23:11:28.561Z,10.70
2019-05-11T23:13:50.132Z,10.70
2019-05-11T23:16:12.216Z,10.70
2019-05-11T23:18:32.722Z,10.70
2019-05-11T23:20:53.193Z,10.80
2019-05-11T23:23:13.687Z,10.70
2019-05-11T23:25:34.364Z,10.70
2019-05-11T23:27:55.042Z,10.70
2019-05-11T23:30:16.016Z,10.70
2019-05-11T23:32:36.479Z,10.70
2019-05-11T23:34:56.924Z,10.60
2019-05-11T23:37:18.406Z,10.50
2019-05-11T23:39:38.975Z,10.50
2019-05-11T23:41:59.515Z,10.40
2019-05-11T23:44:19.991Z,10.40
2019-05-11T23:46:40.541Z,10.40
2019-05-11T23:49:01.006Z,10.40
2019-05-11T23:51:21.620Z,10.40
2019-05-11T23:53:42.194Z,10.40
2019-05-11T23:56:02.778Z,10.40
2019-05-11T23:58:23.785Z,10.40
